sensor_id;sensor_type;location;lat;lon;timestamp;pressure;altitude;pressure_sealevel;temperature;humidity
54314;BME280;50746;52.490;13.320;2023-04-15T00:03:15;100110.0;;;8.9;100.0
54314;BME280;50746;52.490;13.320;2023-04-15T00:04:15;100110.0;;;9.0;100.0
54314;BME280;50746;52.490;13.320;2023-04-15T00:05:15;100110.0;;;9.1;100.0
54314;BME280;50746;52.490;13.320;2023-04-15T00:06:15;100100.0;;;9.0;100.0
54314;BME280;50746;52.490;13.320;2023-04-15T00:08:15;100110.0;;;9.1;100.0
54314;BME280;50746;52.490;13.320;2023-04-15T00:12:15;100110.0;;;9.0;100.0
54314;BME280;50746;52.490;13.320;2023-04-15T00:13:15;100100.0;;;8.9;100.0
54314;BME280;50746;52.490;13.320;2023-04-15T00:14:15;100100.0;;;9.1;100.0
54314;BME280;50746;52.490;13.320;2023-04-15T00:15:15;100100.0;;;9.0;100.0
54314;BME280;50746;52.490;13.320;2023-04-15T00:16:15;100100.0;;;8.8;100.0
54314;BME280;50746;52.490;13.320;2023-04-15T00:18:15;100100.0;;;8.7;100.0
54314;BME280;50746;52.490;13.320;2023-04-15T00:19:15;100100.0;;;8.9;100.0
54314;BME280;50746;52.490;13.320;2023-04-15T00:20:15;100100.0;;;8.8;100.0
54314;BME280;50746;52.490;13.320;2023-04-15T00:21:15;100100.0;;;9.0;100.0
54314;BME280;50746;52.490;13.320;2023-04-15T00:22:15;100100.0;;;8.9;100.0
54314;BME280;50746;52.490;13.320;2023-04-15T00:23:15;100100.0;;;9.0;100.0
54314;BME280;50746;52.490;13.320;2023-04-15T00:24:15;100100.0;;;8.9;100.0
54314;BME280;50746;52.490;13.320;2023-04-15T00:25:15;100100.0;;;9.1;100.0
54314;BME280;50746;52.490;13.320;2023-04-15T00:26:15;100100.0;;;8.9;100.0
54314;BME280;50746;52.490;13.320;2023-04-15T00:27:15;100100.0;;;9.0;100.0
54314;BME280;50746;52.490;13.320;2023-04-15T00:28:15;100100.0;;;8.9;100.0
54314;BME280;50746;52.490;13.320;2023-04-15T00:32:15;100100.0;;;9.0;100.0
54314;BME280;50746;52.490;13.320;2023-04-15T00:33:15;100100.0;;;9.1;100.0
54314;BME280;50746;52.490;13.320;2023-04-15T00:34:15;100100.0;;;8.9;100.0
54314;BME280;50746;52.490;13.320;2023-04-15T00:35:15;100090.0;;;9.0;100.0
54314;BME280;50746;52.490;13.320;2023-04-15T00:36:15;100100.0;;;9.1;100.0
54314;BME280;50746;52.490;13.320;2023-04-15T00:37:15;100090.0;;;9.0;100.0
54314;BME280;50746;52.490;13.320;2023-04-15T00:38:15;100090.0;;;9.1;100.0
54314;BME280;50746;52.490;13.320;2023-04-15T00:39:15;100090.0;;;9.0;100.0
54314;BME280;50746;52.490;13.320;2023-04-15T00:41:15;100090.0;;;9.1;100.0
54314;BME280;50746;52.490;13.320;2023-04-15T00:45:15;100090.0;;;9.0;100.0
54314;BME280;50746;52.490;13.320;2023-04-15T00:46:16;100090.0;;;8.8;100.0
54314;BME280;50746;52.490;13.320;2023-04-15T00:47:15;100090.0;;;8.7;100.0
54314;BME280;50746;52.490;13.320;2023-04-15T00:50:15;100090.0;;;8.8;100.0
54314;BME280;50746;52.490;13.320;2023-04-15T00:52:15;100090.0;;;8.7;100.0
54314;BME280;50746;52.490;13.320;2023-04-15T00:53:15;100090.0;;;9.0;100.0
54314;BME280;50746;52.490;13.320;2023-04-15T00:55:15;100090.0;;;8.9;100.0
54314;BME280;50746;52.490;13.320;2023-04-15T00:59:16;100090.0;;;9.0;100.0
54314;BME280;50746;52.490;13.320;2023-04-15T01:00:15;100090.0;;;8.8;100.0
54314;BME280;50746;52.490;13.320;2023-04-15T01:01:15;100080.0;;;8.9;100.0
54314;BME280;50746;52.490;13.320;2023-04-15T01:02:15;100080.0;;;8.7;100.0
54314;BME280;50746;52.490;13.320;2023-04-15T01:04:15;100090.0;;;8.8;100.0
54314;BME280;50746;52.490;13.320;2023-04-15T01:05:15;100080.0;;;8.7;100.0
54314;BME280;50746;52.490;13.320;2023-04-15T01:06:15;100080.0;;;9.0;100.0
54314;BME280;50746;52.490;13.320;2023-04-15T01:07:15;100080.0;;;8.7;100.0
54314;BME280;50746;52.490;13.320;2023-04-15T01:09:15;100080.0;;;8.8;100.0
54314;BME280;50746;52.490;13.320;2023-04-15T01:10:15;100080.0;;;8.9;100.0
54314;BME280;50746;52.490;13.320;2023-04-15T01:11:15;100080.0;;;8.8;100.0
54314;BME280;50746;52.490;13.320;2023-04-15T01:17:15;100080.0;;;9.2;100.0
54314;BME280;50746;52.490;13.320;2023-04-15T01:19:15;100070.0;;;9.4;100.0
54314;BME280;50746;52.490;13.320;2023-04-15T01:20:15;100080.0;;;9.2;100.0
54314;BME280;50746;52.490;13.320;2023-04-15T01:21:15;100080.0;;;9.1;100.0
54314;BME280;50746;52.490;13.320;2023-04-15T01:22:15;100070.0;;;9.2;100.0
54314;BME280;50746;52.490;13.320;2023-04-15T01:23:15;100070.0;;;9.0;100.0
54314;BME280;50746;52.490;13.320;2023-04-15T01:24:17;100070.0;;;9.2;100.0
54314;BME280;50746;52.490;13.320;2023-04-15T01:25:17;100070.0;;;9.3;100.0
54314;BME280;50746;52.490;13.320;2023-04-15T01:27:15;100070.0;;;9.0;100.0
54314;BME280;50746;52.490;13.320;2023-04-15T01:28:15;100070.0;;;9.3;100.0
54314;BME280;50746;52.490;13.320;2023-04-15T01:29:15;100070.0;;;9.4;100.0
54314;BME280;50746;52.490;13.320;2023-04-15T01:30:15;100070.0;;;9.3;100.0
54314;BME280;50746;52.490;13.320;2023-04-15T01:31:15;100070.0;;;9.0;100.0
54314;BME280;50746;52.490;13.320;2023-04-15T01:32:15;100070.0;;;8.9;100.0
54314;BME280;50746;52.490;13.320;2023-04-15T01:34:15;100070.0;;;9.2;100.0
54314;BME280;50746;52.490;13.320;2023-04-15T01:35:15;100070.0;;;8.9;100.0
54314;BME280;50746;52.490;13.320;2023-04-15T01:36:15;100070.0;;;8.8;100.0
54314;BME280;50746;52.490;13.320;2023-04-15T01:38:15;100070.0;;;8.9;100.0
54314;BME280;50746;52.490;13.320;2023-04-15T01:39:15;100070.0;;;9.0;100.0
54314;BME280;50746;52.490;13.320;2023-04-15T01:40:15;100070.0;;;9.3;100.0
54314;BME280;50746;52.490;13.320;2023-04-15T01:42:15;100070.0;;;9.4;100.0
54314;BME280;50746;52.490;13.320;2023-04-15T01:43:15;100070.0;;;9.3;100.0
54314;BME280;50746;52.490;13.320;2023-04-15T01:44:15;100070.0;;;9.2;100.0
54314;BME280;50746;52.490;13.320;2023-04-15T01:45:15;100070.0;;;9.3;100.0
54314;BME280;50746;52.490;13.320;2023-04-15T01:46:15;100070.0;;;9.4;100.0
54314;BME280;50746;52.490;13.320;2023-04-15T01:47:15;100060.0;;;9.3;100.0
54314;BME280;50746;52.490;13.320;2023-04-15T01:48:15;100060.0;;;9.4;100.0
54314;BME280;50746;52.490;13.320;2023-04-15T01:50:15;100060.0;;;9.2;100.0
54314;BME280;50746;52.490;13.320;2023-04-15T01:51:15;100060.0;;;9.3;100.0
54314;BME280;50746;52.490;13.320;2023-04-15T01:52:15;100070.0;;;9.4;100.0
54314;BME280;50746;52.490;13.320;2023-04-15T01:55:15;100060.0;;;9.2;100.0
54314;BME280;50746;52.490;13.320;2023-04-15T01:59:15;100060.0;;;9.3;100.0
54314;BME280;50746;52.490;13.320;2023-04-15T02:00:15;100060.0;;;9.4;100.0
54314;BME280;50746;52.490;13.320;2023-04-15T02:01:15;100060.0;;;9.3;100.0
54314;BME280;50746;52.490;13.320;2023-04-15T02:02:15;100060.0;;;9.4;100.0
54314;BME280;50746;52.490;13.320;2023-04-15T02:03:15;100060.0;;;9.2;100.0
54314;BME280;50746;52.490;13.320;2023-04-15T02:04:15;100060.0;;;9.3;100.0
54314;BME280;50746;52.490;13.320;2023-04-15T02:05:15;100060.0;;;8.9;100.0
54314;BME280;50746;52.490;13.320;2023-04-15T02:08:15;100060.0;;;9.4;100.0
54314;BME280;50746;52.490;13.320;2023-04-15T02:11:15;100050.0;;;9.2;100.0
54314;BME280;50746;52.490;13.320;2023-04-15T02:12:15;100060.0;;;8.9;100.0
54314;BME280;50746;52.490;13.320;2023-04-15T02:13:15;100050.0;;;9.0;100.0
54314;BME280;50746;52.490;13.320;2023-04-15T02:14:15;100050.0;;;9.1;100.0
54314;BME280;50746;52.490;13.320;2023-04-15T02:15:15;100050.0;;;9.0;100.0
54314;BME280;50746;52.490;13.320;2023-04-15T02:16:15;100050.0;;;9.3;100.0
54314;BME280;50746;52.490;13.320;2023-04-15T02:17:15;100050.0;;;9.1;100.0
54314;BME280;50746;52.490;13.320;2023-04-15T02:18:15;100060.0;;;8.9;100.0
54314;BME280;50746;52.490;13.320;2023-04-15T02:21:15;100050.0;;;9.2;100.0
54314;BME280;50746;52.490;13.320;2023-04-15T02:22:15;100060.0;;;9.3;100.0
54314;BME280;50746;52.490;13.320;2023-04-15T02:23:15;100060.0;;;9.4;100.0
54314;BME280;50746;52.490;13.320;2023-04-15T02:24:15;100050.0;;;9.5;100.0
54314;BME280;50746;52.490;13.320;2023-04-15T02:25:15;100050.0;;;9.4;100.0
54314;BME280;50746;52.490;13.320;2023-04-15T02:27:15;100050.0;;;9.5;100.0
54314;BME280;50746;52.490;13.320;2023-04-15T02:29:15;100050.0;;;9.6;100.0
54314;BME280;50746;52.490;13.320;2023-04-15T02:33:15;100050.0;;;9.5;100.0
54314;BME280;50746;52.490;13.320;2023-04-15T02:34:15;100040.0;;;9.6;100.0
54314;BME280;50746;52.490;13.320;2023-04-15T02:35:15;100050.0;;;9.1;100.0
54314;BME280;50746;52.490;13.320;2023-04-15T02:36:15;100050.0;;;9.2;100.0
54314;BME280;50746;52.490;13.320;2023-04-15T02:37:15;100050.0;;;9.3;100.0
54314;BME280;50746;52.490;13.320;2023-04-15T02:38:15;100050.0;;;9.4;100.0
54314;BME280;50746;52.490;13.320;2023-04-15T02:42:15;100050.0;;;9.3;100.0
54314;BME280;50746;52.490;13.320;2023-04-15T02:43:15;100060.0;;;9.2;100.0
54314;BME280;50746;52.490;13.320;2023-04-15T02:44:15;100060.0;;;9.1;100.0
54314;BME280;50746;52.490;13.320;2023-04-15T02:45:15;100050.0;;;9.3;100.0
54314;BME280;50746;52.490;13.320;2023-04-15T02:46:15;100060.0;;;9.2;100.0
54314;BME280;50746;52.490;13.320;2023-04-15T02:50:15;100060.0;;;9.0;100.0
54314;BME280;50746;52.490;13.320;2023-04-15T02:51:16;100060.0;;;9.1;100.0
54314;BME280;50746;52.490;13.320;2023-04-15T02:52:15;100060.0;;;9.3;100.0
54314;BME280;50746;52.490;13.320;2023-04-15T02:54:15;100060.0;;;9.2;100.0
54314;BME280;50746;52.490;13.320;2023-04-15T02:56:15;100060.0;;;9.3;100.0
54314;BME280;50746;52.490;13.320;2023-04-15T02:58:15;100060.0;;;9.2;100.0
54314;BME280;50746;52.490;13.320;2023-04-15T03:00:15;100060.0;;;9.1;100.0
54314;BME280;50746;52.490;13.320;2023-04-15T03:01:15;100060.0;;;9.2;100.0
54314;BME280;50746;52.490;13.320;2023-04-15T03:04:15;100060.0;;;9.3;100.0
54314;BME280;50746;52.490;13.320;2023-04-15T03:06:15;100060.0;;;9.2;100.0
54314;BME280;50746;52.490;13.320;2023-04-15T03:07:16;100060.0;;;9.1;100.0
54314;BME280;50746;52.490;13.320;2023-04-15T03:08:15;100070.0;;;9.3;100.0
54314;BME280;50746;52.490;13.320;2023-04-15T03:09:15;100070.0;;;9.1;100.0
54314;BME280;50746;52.490;13.320;2023-04-15T03:10:15;100060.0;;;9.2;100.0
54314;BME280;50746;52.490;13.320;2023-04-15T03:12:15;100070.0;;;9.3;100.0
54314;BME280;50746;52.490;13.320;2023-04-15T03:14:15;100060.0;;;9.1;100.0
54314;BME280;50746;52.490;13.320;2023-04-15T03:16:15;100060.0;;;9.0;100.0
54314;BME280;50746;52.490;13.320;2023-04-15T03:17:15;100060.0;;;9.2;100.0
54314;BME280;50746;52.490;13.320;2023-04-15T03:18:15;100060.0;;;9.1;100.0
54314;BME280;50746;52.490;13.320;2023-04-15T03:19:15;100060.0;;;9.0;100.0
54314;BME280;50746;52.490;13.320;2023-04-15T03:21:15;100060.0;;;9.3;100.0
54314;BME280;50746;52.490;13.320;2023-04-15T03:22:15;100060.0;;;9.2;100.0
54314;BME280;50746;52.490;13.320;2023-04-15T03:23:15;100060.0;;;9.4;100.0
54314;BME280;50746;52.490;13.320;2023-04-15T03:24:15;100060.0;;;9.3;100.0
54314;BME280;50746;52.490;13.320;2023-04-15T03:27:15;100070.0;;;9.2;100.0
54314;BME280;50746;52.490;13.320;2023-04-15T03:28:15;100070.0;;;9.0;100.0
54314;BME280;50746;52.490;13.320;2023-04-15T03:29:15;100070.0;;;8.9;100.0
54314;BME280;50746;52.490;13.320;2023-04-15T03:30:15;100070.0;;;9.0;100.0
54314;BME280;50746;52.490;13.320;2023-04-15T03:32:15;100070.0;;;9.1;100.0
54314;BME280;50746;52.490;13.320;2023-04-15T03:34:15;100070.0;;;9.0;100.0
54314;BME280;50746;52.490;13.320;2023-04-15T03:36:15;100070.0;;;9.1;100.0
54314;BME280;50746;52.490;13.320;2023-04-15T03:39:15;100070.0;;;9.0;100.0
54314;BME280;50746;52.490;13.320;2023-04-15T03:40:15;100070.0;;;9.2;100.0
54314;BME280;50746;52.490;13.320;2023-04-15T03:41:15;100070.0;;;9.1;100.0
54314;BME280;50746;52.490;13.320;2023-04-15T03:42:15;100070.0;;;9.3;100.0
54314;BME280;50746;52.490;13.320;2023-04-15T03:44:15;100070.0;;;9.2;100.0
54314;BME280;50746;52.490;13.320;2023-04-15T03:45:15;100060.0;;;9.3;100.0
54314;BME280;50746;52.490;13.320;2023-04-15T03:49:15;100070.0;;;9.4;100.0
54314;BME280;50746;52.490;13.320;2023-04-15T03:51:15;100060.0;;;9.6;100.0
54314;BME280;50746;52.490;13.320;2023-04-15T03:52:15;100060.0;;;9.4;100.0
54314;BME280;50746;52.490;13.320;2023-04-15T03:54:15;100060.0;;;9.1;100.0
54314;BME280;50746;52.490;13.320;2023-04-15T03:55:15;100060.0;;;9.5;100.0
54314;BME280;50746;52.490;13.320;2023-04-15T03:56:15;100060.0;;;9.6;100.0
54314;BME280;50746;52.490;13.320;2023-04-15T03:57:15;100060.0;;;9.7;100.0
54314;BME280;50746;52.490;13.320;2023-04-15T03:58:15;100060.0;;;9.6;100.0
54314;BME280;50746;52.490;13.320;2023-04-15T03:59:15;100070.0;;;9.5;100.0
54314;BME280;50746;52.490;13.320;2023-04-15T04:00:15;100070.0;;;9.4;100.0
54314;BME280;50746;52.490;13.320;2023-04-15T04:01:15;100070.0;;;9.5;100.0
54314;BME280;50746;52.490;13.320;2023-04-15T04:02:15;100070.0;;;9.4;100.0
54314;BME280;50746;52.490;13.320;2023-04-15T04:05:15;100070.0;;;9.5;100.0
54314;BME280;50746;52.490;13.320;2023-04-15T04:06:15;100070.0;;;9.4;100.0
54314;BME280;50746;52.490;13.320;2023-04-15T04:07:15;100060.0;;;9.7;100.0
54314;BME280;50746;52.490;13.320;2023-04-15T04:08:15;100070.0;;;9.6;100.0
54314;BME280;50746;52.490;13.320;2023-04-15T04:21:15;100070.0;;;9.5;100.0
54314;BME280;50746;52.490;13.320;2023-04-15T04:28:15;100070.0;;;9.8;100.0
54314;BME280;50746;52.490;13.320;2023-04-15T04:29:15;100070.0;;;9.7;100.0
54314;BME280;50746;52.490;13.320;2023-04-15T04:30:15;100070.0;;;9.6;100.0
54314;BME280;50746;52.490;13.320;2023-04-15T04:37:15;100080.0;;;9.5;100.0
54314;BME280;50746;52.490;13.320;2023-04-15T04:40:15;100080.0;;;9.9;100.0
54314;BME280;50746;52.490;13.320;2023-04-15T04:41:15;100070.0;;;10.0;100.0
54314;BME280;50746;52.490;13.320;2023-04-15T04:42:15;100070.0;;;9.9;100.0
54314;BME280;50746;52.490;13.320;2023-04-15T04:43:15;100070.0;;;9.7;100.0
54314;BME280;50746;52.490;13.320;2023-04-15T04:45:15;100080.0;;;9.6;100.0
54314;BME280;50746;52.490;13.320;2023-04-15T04:47:15;100080.0;;;9.7;100.0
54314;BME280;50746;52.490;13.320;2023-04-15T04:48:15;100080.0;;;9.9;100.0
54314;BME280;50746;52.490;13.320;2023-04-15T04:49:15;100080.0;;;9.8;100.0
54314;BME280;50746;52.490;13.320;2023-04-15T04:50:15;100070.0;;;10.0;100.0
54314;BME280;50746;52.490;13.320;2023-04-15T04:52:15;100080.0;;;10.1;100.0
54314;BME280;50746;52.490;13.320;2023-04-15T04:53:15;100080.0;;;9.8;100.0
54314;BME280;50746;52.490;13.320;2023-04-15T04:54:15;100080.0;;;9.9;100.0
54314;BME280;50746;52.490;13.320;2023-04-15T04:55:15;100090.0;;;10.0;100.0
54314;BME280;50746;52.490;13.320;2023-04-15T04:56:15;100080.0;;;9.9;100.0
54314;BME280;50746;52.490;13.320;2023-04-15T04:57:15;100080.0;;;9.7;100.0
54314;BME280;50746;52.490;13.320;2023-04-15T04:58:15;100080.0;;;9.8;100.0
54314;BME280;50746;52.490;13.320;2023-04-15T05:00:15;100090.0;;;9.9;100.0
54314;BME280;50746;52.490;13.320;2023-04-15T05:01:15;100080.0;;;9.8;100.0
54314;BME280;50746;52.490;13.320;2023-04-15T05:02:15;100090.0;;;9.7;100.0
54314;BME280;50746;52.490;13.320;2023-04-15T05:03:15;100090.0;;;9.6;100.0
54314;BME280;50746;52.490;13.320;2023-04-15T05:04:15;100090.0;;;9.7;100.0
54314;BME280;50746;52.490;13.320;2023-04-15T05:07:15;100090.0;;;9.8;100.0
54314;BME280;50746;52.490;13.320;2023-04-15T05:08:15;100090.0;;;10.1;100.0
54314;BME280;50746;52.490;13.320;2023-04-15T05:09:15;100090.0;;;9.9;100.0
54314;BME280;50746;52.490;13.320;2023-04-15T05:10:15;100090.0;;;9.8;100.0
54314;BME280;50746;52.490;13.320;2023-04-15T05:12:15;100100.0;;;9.7;100.0
54314;BME280;50746;52.490;13.320;2023-04-15T05:16:15;100100.0;;;10.0;100.0
54314;BME280;50746;52.490;13.320;2023-04-15T05:17:15;100100.0;;;9.8;100.0
54314;BME280;50746;52.490;13.320;2023-04-15T05:18:15;100100.0;;;10.0;100.0
54314;BME280;50746;52.490;13.320;2023-04-15T05:19:15;100100.0;;;9.8;100.0
54314;BME280;50746;52.490;13.320;2023-04-15T05:21:15;100100.0;;;9.9;100.0
54314;BME280;50746;52.490;13.320;2023-04-15T05:22:15;100100.0;;;10.1;100.0
54314;BME280;50746;52.490;13.320;2023-04-15T05:25:15;100100.0;;;10.2;100.0
54314;BME280;50746;52.490;13.320;2023-04-15T05:26:15;100100.0;;;10.3;100.0
54314;BME280;50746;52.490;13.320;2023-04-15T05:27:15;100110.0;;;10.4;100.0
54314;BME280;50746;52.490;13.320;2023-04-15T05:28:15;100100.0;;;9.9;100.0
54314;BME280;50746;52.490;13.320;2023-04-15T05:29:15;100100.0;;;9.8;100.0
54314;BME280;50746;52.490;13.320;2023-04-15T05:30:15;100110.0;;;10.0;100.0
54314;BME280;50746;52.490;13.320;2023-04-15T05:31:15;100110.0;;;9.9;100.0
54314;BME280;50746;52.490;13.320;2023-04-15T05:38:15;100110.0;;;10.2;100.0
54314;BME280;50746;52.490;13.320;2023-04-15T05:39:15;100110.0;;;10.3;100.0
54314;BME280;50746;52.490;13.320;2023-04-15T05:40:15;100110.0;;;10.4;100.0
54314;BME280;50746;52.490;13.320;2023-04-15T05:41:15;100110.0;;;10.3;100.0
54314;BME280;50746;52.490;13.320;2023-04-15T05:42:15;100120.0;;;10.2;100.0
54314;BME280;50746;52.490;13.320;2023-04-15T05:44:15;100110.0;;;10.3;100.0
54314;BME280;50746;52.490;13.320;2023-04-15T05:46:15;100110.0;;;10.2;100.0
54314;BME280;50746;52.490;13.320;2023-04-15T05:47:15;100110.0;;;10.3;100.0
54314;BME280;50746;52.490;13.320;2023-04-15T05:50:15;100110.0;;;10.2;100.0
54314;BME280;50746;52.490;13.320;2023-04-15T05:51:15;100110.0;;;10.0;100.0
54314;BME280;50746;52.490;13.320;2023-04-15T05:52:15;100110.0;;;10.3;100.0
54314;BME280;50746;52.490;13.320;2023-04-15T05:53:15;100110.0;;;10.1;100.0
54314;BME280;50746;52.490;13.320;2023-04-15T05:54:15;100110.0;;;9.9;100.0
54314;BME280;50746;52.490;13.320;2023-04-15T05:55:15;100110.0;;;10.4;100.0
54314;BME280;50746;52.490;13.320;2023-04-15T05:56:15;100110.0;;;10.2;100.0
54314;BME280;50746;52.490;13.320;2023-04-15T05:57:15;100100.0;;;10.3;100.0
54314;BME280;50746;52.490;13.320;2023-04-15T05:59:15;100100.0;;;10.2;100.0
54314;BME280;50746;52.490;13.320;2023-04-15T06:00:15;100100.0;;;10.1;100.0
54314;BME280;50746;52.490;13.320;2023-04-15T06:01:15;100100.0;;;10.0;100.0
54314;BME280;50746;52.490;13.320;2023-04-15T06:02:15;100110.0;;;10.3;100.0
54314;BME280;50746;52.490;13.320;2023-04-15T06:03:15;100110.0;;;10.1;100.0
54314;BME280;50746;52.490;13.320;2023-04-15T06:04:15;100110.0;;;10.5;100.0
54314;BME280;50746;52.490;13.320;2023-04-15T06:05:15;100110.0;;;10.6;100.0
54314;BME280;50746;52.490;13.320;2023-04-15T06:06:15;100110.0;;;10.3;100.0
54314;BME280;50746;52.490;13.320;2023-04-15T06:07:15;100110.0;;;10.2;100.0
54314;BME280;50746;52.490;13.320;2023-04-15T06:08:15;100110.0;;;10.1;100.0
54314;BME280;50746;52.490;13.320;2023-04-15T06:09:15;100110.0;;;10.4;100.0
54314;BME280;50746;52.490;13.320;2023-04-15T06:10:15;100110.0;;;10.2;100.0
54314;BME280;50746;52.490;13.320;2023-04-15T06:11:15;100100.0;;;10.1;100.0
54314;BME280;50746;52.490;13.320;2023-04-15T06:12:15;100100.0;;;10.4;100.0
54314;BME280;50746;52.490;13.320;2023-04-15T06:13:15;100100.0;;;10.6;100.0
54314;BME280;50746;52.490;13.320;2023-04-15T06:14:15;100100.0;;;10.7;100.0
54314;BME280;50746;52.490;13.320;2023-04-15T06:15:15;100110.0;;;10.8;100.0
54314;BME280;50746;52.490;13.320;2023-04-15T06:16:15;100110.0;;;10.7;100.0
54314;BME280;50746;52.490;13.320;2023-04-15T06:18:15;100110.0;;;10.8;100.0
54314;BME280;50746;52.490;13.320;2023-04-15T06:19:15;100110.0;;;10.9;100.0
54314;BME280;50746;52.490;13.320;2023-04-15T06:25:15;100110.0;;;10.5;100.0
54314;BME280;50746;52.490;13.320;2023-04-15T06:26:14;100110.0;;;10.4;100.0
54314;BME280;50746;52.490;13.320;2023-04-15T06:27:15;100110.0;;;10.6;100.0
54314;BME280;50746;52.490;13.320;2023-04-15T06:28:15;100110.0;;;10.4;100.0
54314;BME280;50746;52.490;13.320;2023-04-15T06:29:15;100110.0;;;10.7;100.0
54314;BME280;50746;52.490;13.320;2023-04-15T06:30:15;100110.0;;;10.9;100.0
54314;BME280;50746;52.490;13.320;2023-04-15T06:31:15;100110.0;;;10.6;100.0
54314;BME280;50746;52.490;13.320;2023-04-15T06:33:15;100110.0;;;10.4;100.0
54314;BME280;50746;52.490;13.320;2023-04-15T06:35:15;100110.0;;;10.3;100.0
54314;BME280;50746;52.490;13.320;2023-04-15T06:38:15;100110.0;;;10.7;100.0
54314;BME280;50746;52.490;13.320;2023-04-15T06:39:15;100110.0;;;10.8;100.0
54314;BME280;50746;52.490;13.320;2023-04-15T06:40:15;100110.0;;;10.5;100.0
54314;BME280;50746;52.490;13.320;2023-04-15T06:41:15;100110.0;;;10.3;100.0
54314;BME280;50746;52.490;13.320;2023-04-15T06:42:15;100120.0;;;10.4;100.0
54314;BME280;50746;52.490;13.320;2023-04-15T06:44:15;100120.0;;;10.5;100.0
54314;BME280;50746;52.490;13.320;2023-04-15T06:46:14;100120.0;;;10.8;100.0
54314;BME280;50746;52.490;13.320;2023-04-15T06:47:15;100120.0;;;10.7;100.0
54314;BME280;50746;52.490;13.320;2023-04-15T06:49:15;100130.0;;;11.0;100.0
54314;BME280;50746;52.490;13.320;2023-04-15T06:50:15;100130.0;;;11.2;100.0
54314;BME280;50746;52.490;13.320;2023-04-15T06:53:15;100130.0;;;11.0;100.0
54314;BME280;50746;52.490;13.320;2023-04-15T06:54:15;100130.0;;;10.9;100.0
54314;BME280;50746;52.490;13.320;2023-04-15T06:55:15;100140.0;;;10.8;100.0
54314;BME280;50746;52.490;13.320;2023-04-15T06:56:14;100140.0;;;10.9;100.0
54314;BME280;50746;52.490;13.320;2023-04-15T06:58:15;100140.0;;;11.2;100.0
54314;BME280;50746;52.490;13.320;2023-04-15T07:02:15;100140.0;;;11.3;100.0
54314;BME280;50746;52.490;13.320;2023-04-15T07:03:15;100140.0;;;11.1;100.0
54314;BME280;50746;52.490;13.320;2023-04-15T07:04:15;100140.0;;;11.2;100.0
54314;BME280;50746;52.490;13.320;2023-04-15T07:05:15;100150.0;;;11.3;100.0
54314;BME280;50746;52.490;13.320;2023-04-15T07:06:14;100140.0;;;11.4;100.0
54314;BME280;50746;52.490;13.320;2023-04-15T07:07:15;100140.0;;;11.5;100.0
54314;BME280;50746;52.490;13.320;2023-04-15T07:08:15;100150.0;;;11.6;100.0
54314;BME280;50746;52.490;13.320;2023-04-15T07:09:14;100150.0;;;11.4;100.0
54314;BME280;50746;52.490;13.320;2023-04-15T07:10:15;100150.0;;;11.5;100.0
54314;BME280;50746;52.490;13.320;2023-04-15T07:11:15;100150.0;;;11.7;100.0
54314;BME280;50746;52.490;13.320;2023-04-15T07:12:15;100150.0;;;11.8;100.0
54314;BME280;50746;52.490;13.320;2023-04-15T07:14:15;100170.0;;;11.6;100.0
54314;BME280;50746;52.490;13.320;2023-04-15T07:15:15;100160.0;;;11.7;100.0
54314;BME280;50746;52.490;13.320;2023-04-15T07:16:14;100150.0;;;11.8;100.0
54314;BME280;50746;52.490;13.320;2023-04-15T07:17:15;100150.0;;;11.6;100.0
54314;BME280;50746;52.490;13.320;2023-04-15T07:18:14;100160.0;;;11.5;100.0
54314;BME280;50746;52.490;13.320;2023-04-15T07:20:15;100160.0;;;11.4;100.0
54314;BME280;50746;52.490;13.320;2023-04-15T07:21:15;100160.0;;;11.7;100.0
54314;BME280;50746;52.490;13.320;2023-04-15T07:22:15;100160.0;;;11.5;100.0
54314;BME280;50746;52.490;13.320;2023-04-15T07:25:15;100170.0;;;11.6;100.0
54314;BME280;50746;52.490;13.320;2023-04-15T07:28:15;100170.0;;;11.4;100.0
54314;BME280;50746;52.490;13.320;2023-04-15T07:29:14;100170.0;;;11.3;100.0
54314;BME280;50746;52.490;13.320;2023-04-15T07:31:15;100170.0;;;11.6;100.0
54314;BME280;50746;52.490;13.320;2023-04-15T07:32:15;100180.0;;;11.5;100.0
54314;BME280;50746;52.490;13.320;2023-04-15T07:33:15;100170.0;;;11.7;100.0
54314;BME280;50746;52.490;13.320;2023-04-15T07:36:15;100170.0;;;11.6;100.0
54314;BME280;50746;52.490;13.320;2023-04-15T07:40:15;100180.0;;;11.4;100.0
54314;BME280;50746;52.490;13.320;2023-04-15T07:43:15;100180.0;;;11.5;100.0
54314;BME280;50746;52.490;13.320;2023-04-15T07:44:14;100180.0;;;11.4;100.0
54314;BME280;50746;52.490;13.320;2023-04-15T07:45:14;100180.0;;;11.5;100.0
54314;BME280;50746;52.490;13.320;2023-04-15T07:46:15;100180.0;;;11.7;100.0
54314;BME280;50746;52.490;13.320;2023-04-15T07:47:15;100180.0;;;11.9;100.0
54314;BME280;50746;52.490;13.320;2023-04-15T07:48:15;100180.0;;;11.8;100.0
54314;BME280;50746;52.490;13.320;2023-04-15T07:49:15;100180.0;;;12.0;100.0
54314;BME280;50746;52.490;13.320;2023-04-15T07:50:15;100180.0;;;11.8;100.0
54314;BME280;50746;52.490;13.320;2023-04-15T07:51:15;100180.0;;;11.7;100.0
54314;BME280;50746;52.490;13.320;2023-04-15T07:52:14;100180.0;;;12.0;100.0
54314;BME280;50746;52.490;13.320;2023-04-15T07:53:14;100180.0;;;11.6;100.0
54314;BME280;50746;52.490;13.320;2023-04-15T07:54:15;100180.0;;;11.7;100.0
54314;BME280;50746;52.490;13.320;2023-04-15T07:56:15;100180.0;;;12.0;100.0
54314;BME280;50746;52.490;13.320;2023-04-15T07:57:14;100180.0;;;11.8;100.0
54314;BME280;50746;52.490;13.320;2023-04-15T08:00:15;100180.0;;;11.7;100.0
54314;BME280;50746;52.490;13.320;2023-04-15T08:01:15;100180.0;;;11.6;100.0
54314;BME280;50746;52.490;13.320;2023-04-15T08:03:15;100180.0;;;11.4;100.0
54314;BME280;50746;52.490;13.320;2023-04-15T08:04:15;100180.0;;;11.6;100.0
54314;BME280;50746;52.490;13.320;2023-04-15T08:05:14;100180.0;;;11.4;100.0
54314;BME280;50746;52.490;13.320;2023-04-15T08:06:14;100190.0;;;11.5;100.0
54314;BME280;50746;52.490;13.320;2023-04-15T08:07:14;100180.0;;;11.2;100.0
54314;BME280;50746;52.490;13.320;2023-04-15T08:08:14;100190.0;;;11.4;100.0
54314;BME280;50746;52.490;13.320;2023-04-15T08:09:15;100190.0;;;11.2;100.0
54314;BME280;50746;52.490;13.320;2023-04-15T08:13:15;100190.0;;;11.6;100.0